Wednesday, October 17, 2018, 4:30 PM GMT
Back to Local

CYCX, Gagetown Can-Mil

Location: , , Canada Lat: 45.833
Local Time: 4:30 PM GMT (16:30 GMT) Lon: -66.433
Time Zone: GMT Elev: 167 ft

Show me the last for .
Show Decoded

2018-10-17 16:00 METAR CYCX 171600Z 25009KT 210V270 5SM -RA BR SCT022 OVC078 07/05 A2973 RMK
                 SC4AS4 DA-440FT SLP071 =
2018-10-17 15:00 METAR CYCX 171500Z 20004KT 15SM -RA FEW036 OVC078 08/02 A2975 RMK SC2AS6
                 DA-313FT SLP076 =
2018-10-17 14:00 METAR CYCX 171400Z 21006KT 190V250 15SM BKN045 OVC075 07/01 A2978 RMK SC5AS3
                 DA-485FT SLP086 =
2018-10-17 13:00 METAR CYCX 171300Z 19006KT 160V220 15SM OVC083 05/M00 A2980 RMK AS8 DA-776FT SUN
                 DIMLY VISBL SLP095 =
2018-10-17 12:00 METAR CYCX 171200Z 19005KT 15SM BKN093 03/M01 A2982 RMK AC7 DA-1016FT SUN DIMLY
                 VISBL SLP102 =
2018-10-17 11:00 METAR CYCX 171100Z 18007KT 15SM FEW100 BKN220 02/M02 A2983 RMK AC2CI4 DA-1233FT
                 SLP104 =
2018-10-17 10:00 METAR CYCX 171000Z 19006KT 15SM FEW090 02/M03 A2984 RMK AC2 DA-1270FT SLP108 =
2018-10-17 09:00 METAR CYCX 170900Z 19008KT 15SM FEW090 01/M03 A2986 RMK AC1 DA-1319FT SLP115 =
2018-10-17 08:00 METAR CYCX 170800Z 20007KT 15SM SKC 00/M03 A2986 RMK DA-1446FT SLP114 =
2018-10-17 07:00 METAR CYCX 170700Z 19007KT 15SM SKC 01/M03 A2986 RMK DA-1395FT SLP114 =
2018-10-17 06:00 METAR CYCX 170600Z 22008KT 15SM SKC 02/M03 A2988 RMK DA-1292FT SLP120 =
2018-10-17 05:00 METAR CYCX 170500Z 23005KT 15SM FEW100 02/M03 A2988 RMK AC1 DA-1230FT SLP120 =
2018-10-17 04:00 METAR CYCX 170400Z 26005KT 15SM FEW110 03/M03 A2988 RMK AC1 DA-1181FT SLP121 =
2018-10-17 03:00 METAR CYCX 170300Z 25007KT 15SM FEW090 03/M03 A2986 RMK AC1 DA-1081FT SLP115 =
2018-10-17 02:00 METAR CYCX 170200Z 24008KT 15SM FEW090 03/M03 A2985 RMK AC1 DA-1131FT SLP111 =
2018-10-17 01:00 METAR CYCX 170100Z 24010KT 15SM FEW092 05/M03 A2984 RMK AC1 DA-896FT SLP107 =
2018-10-17 00:00 METAR CYCX 170000Z 26009KT 15SM FEW092 06/M03 A2982 RMK AC1 DA-751FT SLP101 =
2018-10-16 23:00 METAR CYCX 162300Z 27012G19KT 15SM FEW092 06/M03 A2982 RMK AC1 DA-665FT SLP099 =
2018-10-16 22:00 METAR CYCX 162200Z 27015G20KT 15SM FEW044 FEW090 07/M03 A2978 RMK SC1AC1
                 DA-497FT SLP086 =
2018-10-16 21:00 METAR CYCX 162100Z 28010G20KT 15SM FEW051 09/M03 A2975 RMK SC1 DA-279FT SLP076 =
2018-10-16 20:00 METAR CYCX 162000Z 28012G17KT 15SM FEW051 10/M02 A2972 RMK SC2 DA-69FT SLP067 =
2018-10-16 19:00 METAR CYCX 161900Z 28012G20KT 15SM FEW051 11/M01 A2970 RMK SC2 DA-7FT SLP061 =
2018-10-16 18:00 METAR CYCX 161800Z 25015G22KT 15SM SCT047 11/M00 A2969 RMK CU3 DA81FT SLP054 =
2018-10-16 17:00 METAR CYCX 161700Z 27020G27KT 15SM SCT047 10/M01 A2967 RMK CU3 DA-31FT SLP049 =

Support USWX by starting your Amazon purchase here.